Terminal Aerodrome Forecast
Issued by NWS

Home | Current Version | Previous Version | Graphics & Text | Print | Product List | Glossary On
Versions: 1 2 3 4 5 6 7 8 9 10 11 12 13 14 15 16 17 18 19 20 21 22 23 24 25 26
542
FTUS43 KBIS 232340
TAFDIK
TAF
KDIK 232340Z 2400/2424 09011KT 2SM -DZ BR OVC003
     FM240400 07010KT 1SM SHRA BR VCTS OVC003CB
      TEMPO 2405/2407 TSRA
     FM240800 VRB05KT 3/4SM BR VCSH OVC003
     FM241400 23005KT 4SM BR OVC008
     FM241700 20009KT P6SM BKN035
     FM241900 21017G24KT P6SM BKN040=

USA.gov is the U.S. government's official web portal to all federal, state and local government web resources and services.